Time;durP1;ratioP1;P1;durP2;ratioP2;P2;SDS_P1;SDS_P2;PMS_P1;PMS_P2;Temp;Humidity;BMP_temperature;BMP_pressure;BME280_temperature;BME280_humidity;BME280_pressure;Samples;Min_cycle;Max_cycle;Signal;HPM_P1;HPM_P2
2021/07/19 00:00:12;;;;;;;13.05;8.50;;;;;;;19.94;85.81;96492.67;1706993;83;20991;-79
2021/07/19 00:02:40;;;;;;;11.25;8.55;;;;;;;19.94;85.65;96495.83;1722178;82;20971;-79
2021/07/19 00:05:07;;;;;;;10.03;8.35;;;;;;;19.92;85.69;96493.95;1708941;82;21059;-79
2021/07/19 00:07:33;;;;;;;10.38;8.18;;;;;;;19.89;85.75;96489.96;1714126;82;20980;-79
2021/07/19 00:09:58;;;;;;;14.83;8.53;;;;;;;19.89;85.64;96488.64;1713475;82;20908;-79
2021/07/19 00:12:24;;;;;;;12.47;9.00;;;;;;;19.90;85.76;96492.88;1704149;82;21218;-79
2021/07/19 00:14:50;;;;;;;12.82;7.97;;;;;;;19.90;85.70;96497.35;1721762;82;20920;-79
2021/07/19 00:17:17;;;;;;;12.65;8.45;;;;;;;19.91;85.82;96491.84;1717862;82;20992;-78
2021/07/19 00:19:43;;;;;;;15.30;8.80;;;;;;;19.91;85.62;96498.43;1705020;82;20967;-79
2021/07/19 00:22:09;;;;;;;12.33;8.83;;;;;;;19.91;85.76;96497.63;1702796;82;20940;-79
2021/07/19 00:24:35;;;;;;;11.65;7.97;;;;;;;19.89;85.82;96501.83;1694877;82;21221;-79
2021/07/19 00:27:01;;;;;;;11.33;8.93;;;;;;;19.88;85.92;96496.27;1702995;82;20968;-79
2021/07/19 00:29:27;;;;;;;14.23;8.50;;;;;;;19.88;85.87;96496.80;1720064;82;21007;-78
2021/07/19 00:31:53;;;;;;;16.67;8.35;;;;;;;19.86;86.05;96498.88;1709288;82;21372;-79
2021/07/19 00:34:19;;;;;;;17.20;8.00;;;;;;;19.87;86.09;96504.42;1704859;83;20981;-79
2021/07/19 00:36:49;;;;;;;13.10;8.73;;;;;;;19.89;86.17;96504.47;1672500;84;20983;-79
2021/07/19 00:39:13;;;;;;;14.33;9.03;;;;;;;19.90;86.11;96506.58;1702646;83;21022;-79
2021/07/19 00:41:38;;;;;;;13.43;8.08;;;;;;;19.90;85.91;96506.58;1703469;83;20937;-79
2021/07/19 00:44:06;;;;;;;13.05;8.80;;;;;;;19.89;85.85;96506.30;1700336;83;20900;-79
2021/07/19 00:46:32;;;;;;;16.48;10.13;;;;;;;19.88;85.93;96504.70;1647744;85;20957;-79
2021/07/19 00:48:58;;;;;;;13.30;8.53;;;;;;;19.87;86.07;96511.02;1690449;83;20934;-79
2021/07/19 00:51:25;;;;;;;10.82;8.20;;;;;;;19.85;86.00;96509.94;1676399;84;21008;-78
2021/07/19 00:53:51;;;;;;;11.03;8.10;;;;;;;19.85;86.05;96509.11;1689528;83;20972;-79
2021/07/19 00:56:18;;;;;;;14.68;9.20;;;;;;;19.83;86.00;96514.62;1691585;83;21037;-79
2021/07/19 00:58:43;;;;;;;11.60;8.20;;;;;;;19.86;86.21;96511.53;1681851;84;21253;-79
2021/07/19 01:01:09;;;;;;;11.55;7.97;;;;;;;19.87;86.24;96517.09;1683852;83;21019;-78
2021/07/19 01:03:35;;;;;;;12.75;8.45;;;;;;;19.88;86.12;96521.33;1654367;85;20989;-78
2021/07/19 01:06:01;;;;;;;14.90;9.13;;;;;;;19.89;86.03;96523.44;1679960;84;21274;-78
2021/07/19 01:08:27;;;;;;;16.48;9.98;;;;;;;19.87;85.87;96523.68;1679850;84;21025;-79
2021/07/19 01:10:52;;;;;;;9.83;8.30;;;;;;;19.84;85.77;96516.22;1676170;84;21025;-79
2021/07/19 01:13:18;;;;;;;11.65;7.90;;;;;;;19.80;85.75;96532.23;1679766;84;21318;-79
2021/07/19 01:15:44;;;;;;;14.03;8.08;;;;;;;19.77;85.79;96526.92;1678648;84;21058;-79
2021/07/19 01:18:10;;;;;;;12.98;8.90;;;;;;;19.74;85.62;96528.72;1679645;84;20960;-79
2021/07/19 01:21:07;;;;;;;13.43;8.18;;;;;;;19.72;85.75;96522.08;1645710;85;20992;-79
2021/07/19 01:24:02;;;;;;;11.10;8.25;;;;;;;19.70;85.64;96521.01;1654543;85;20928;-79
2021/07/19 01:27:03;;;;;;;11.55;8.18;;;;;;;19.68;85.68;96519.62;1652186;85;20963;-79
2021/07/19 01:29:29;;;;;;;12.98;8.60;;;;;;;19.68;85.63;96516.98;1696187;83;20905;-79
2021/07/19 01:31:54;;;;;;;10.90;8.48;;;;;;;19.62;85.33;96519.25;1697907;82;21063;-79
2021/07/19 01:34:23;;;;;;;11.08;8.73;;;;;;;19.59;85.44;96523.16;1707022;82;21024;-79
2021/07/19 01:36:55;;;;;;;12.33;8.45;;;;;;;19.55;85.32;96523.88;1719427;82;20991;-79
2021/07/19 01:39:21;;;;;;;12.50;8.48;;;;;;;19.49;85.16;96514.50;1712461;82;21284;-79
2021/07/19 01:41:47;;;;;;;9.88;8.78;;;;;;;19.47;85.04;96517.89;1707500;82;20971;-78
2021/07/19 01:44:13;;;;;;;14.13;9.20;;;;;;;19.44;84.89;96518.88;1715673;82;20904;-79
2021/07/19 01:46:39;;;;;;;11.50;7.90;;;;;;;19.40;85.06;96521.70;1716703;82;21237;-79
2021/07/19 01:49:04;;;;;;;13.88;8.50;;;;;;;19.33;84.77;96519.19;1718098;82;20920;-79
2021/07/19 01:51:30;;;;;;;12.98;8.13;;;;;;;19.32;84.85;96523.38;1708813;82;20920;-78
2021/07/19 01:53:56;;;;;;;11.50;7.87;;;;;;;19.29;84.79;96525.16;1719181;82;21011;-79
2021/07/19 01:56:23;;;;;;;16.25;8.35;;;;;;;19.27;84.71;96521.97;1709383;82;20967;-79
2021/07/19 01:58:49;;;;;;;14.78;8.85;;;;;;;19.24;84.77;96521.92;1717126;82;20936;-78
2021/07/19 02:01:16;;;;;;;13.32;7.62;;;;;;;19.22;84.85;96519.23;1698774;82;21348;-79
2021/07/19 02:03:41;;;;;;;10.53;7.50;;;;;;;19.16;84.71;96519.11;1719101;82;20941;-79
2021/07/19 02:06:07;;;;;;;10.75;7.05;;;;;;;19.11;84.59;96522.17;1707833;82;21044;-78
2021/07/19 02:08:35;;;;;;;11.60;7.70;;;;;;;19.08;84.59;96519.48;1711276;82;21273;-78
2021/07/19 02:11:01;;;;;;;13.25;7.60;;;;;;;19.07;84.70;96524.47;1709527;82;20928;-79
2021/07/19 02:13:27;;;;;;;10.90;7.67;;;;;;;19.04;84.60;96527.58;1720292;82;20963;-79
2021/07/19 02:15:54;;;;;;;10.38;7.55;;;;;;;18.99;84.54;96526.64;1690001;84;20983;-78
2021/07/19 02:18:23;;;;;;;18.32;7.10;;;;;;;18.95;84.82;96523.67;1718120;82;20996;-79
2021/07/19 02:20:48;;;;;;;10.85;7.08;;;;;;;18.94;84.89;96522.08;1706075;82;21079;-79
2021/07/19 02:23:15;;;;;;;14.40;6.95;;;;;;;18.95;84.94;96525.52;1719432;82;21284;-79
2021/07/19 02:25:40;;;;;;;11.18;6.83;;;;;;;18.95;84.96;96530.78;1704232;82;20984;-78
2021/07/19 02:28:10;;;;;;;10.93;6.65;;;;;;;18.96;84.95;96531.06;1719589;82;20926;-79
2021/07/19 02:30:37;;;;;;;10.10;7.05;;;;;;;18.96;85.12;96529.74;1722146;82;21320;-79
2021/07/19 02:33:03;;;;;;;10.05;6.67;;;;;;;18.98;85.02;96532.95;1719343;82;20984;-78
2021/07/19 02:35:31;;;;;;;9.90;6.80;;;;;;;18.95;84.87;96527.63;1718488;82;20991;-79
2021/07/19 02:38:01;;;;;;;8.70;6.47;;;;;;;18.95;85.00;96530.27;1712137;82;21295;-78
2021/07/19 02:40:27;;;;;;;9.55;6.42;;;;;;;18.97;84.98;96534.77;1687012;83;21314;-78
2021/07/19 02:42:58;;;;;;;7.95;5.85;;;;;;;18.97;84.92;96537.41;1708683;82;21059;-78
2021/07/19 02:45:25;;;;;;;9.38;6.40;;;;;;;18.98;84.80;96531.63;1689445;83;21263;-79
2021/07/19 02:47:51;;;;;;;10.40;7.15;;;;;;;18.97;84.75;96531.34;1688939;84;21017;-79
2021/07/19 02:50:25;;;;;;;11.78;6.28;;;;;;;18.95;85.13;96534.21;1715895;82;20988;-79
2021/07/19 02:52:51;;;;;;;9.15;6.55;;;;;;;18.93;85.00;96535.48;1679967;83;20985;-78
2021/07/19 02:55:18;;;;;;;11.20;6.20;;;;;;;18.91;84.94;96533.59;1706849;82;21326;-78
2021/07/19 02:57:44;;;;;;;6.92;5.40;;;;;;;18.87;84.82;96527.96;1712044;82;20984;-79
2021/07/19 03:00:13;;;;;;;8.65;5.80;;;;;;;18.85;84.81;96533.46;1722410;82;20976;-78
2021/07/19 03:02:43;;;;;;;10.68;5.87;;;;;;;18.83;84.46;96529.46;1707045;82;21051;-79
2021/07/19 03:05:10;;;;;;;9.28;5.35;;;;;;;18.79;84.35;96530.95;1692902;83;21313;-79
2021/07/19 03:07:37;;;;;;;8.10;5.33;;;;;;;18.71;84.16;96534.75;1712530;82;20932;-78
2021/07/19 03:10:05;;;;;;;7.90;4.78;;;;;;;18.64;84.25;96532.73;1719941;82;21253;-79
2021/07/19 03:12:32;;;;;;;10.38;5.25;;;;;;;18.62;84.17;96534.77;1709201;82;20950;-78
2021/07/19 03:14:58;;;;;;;11.12;5.05;;;;;;;18.58;84.07;96533.11;1719302;82;21361;-79
2021/07/19 03:17:25;;;;;;;9.65;6.20;;;;;;;18.53;84.09;96532.97;1715862;82;20897;-78
2021/07/19 03:19:51;;;;;;;10.10;5.30;;;;;;;18.53;84.34;96537.44;1706142;82;21329;-79
2021/07/19 03:22:17;;;;;;;10.58;5.00;;;;;;;18.50;84.13;96534.75;1668566;83;20972;-78
2021/07/19 03:24:45;;;;;;;7.58;4.42;;;;;;;18.45;84.26;96537.78;1713568;82;20948;-79
2021/07/19 03:27:11;;;;;;;10.80;4.50;;;;;;;18.44;84.21;96537.50;1678497;84;20971;-79
2021/07/19 03:29:36;;;;;;;10.40;4.65;;;;;;;18.44;84.43;96546.19;1704560;82;20916;-79
2021/07/19 03:32:04;;;;;;;11.78;5.33;;;;;;;18.44;84.49;96539.61;1718292;82;21353;-78
2021/07/19 03:34:30;;;;;;;8.60;4.78;;;;;;;18.42;84.63;96540.36;1712161;82;20932;-79
2021/07/19 03:36:56;;;;;;;9.25;5.00;;;;;;;18.41;84.64;96547.16;1675910;84;20918;-79
2021/07/19 03:39:22;;;;;;;11.57;4.70;;;;;;;18.42;84.77;96545.62;1706099;82;20987;-78
2021/07/19 03:41:52;;;;;;;8.25;4.90;;;;;;;18.44;84.95;96541.45;1719052;82;21254;-79
2021/07/19 03:44:17;;;;;;;9.35;5.00;;;;;;;18.46;84.85;96539.38;1683175;84;20919;-79
2021/07/19 03:46:43;;;;;;;9.03;4.65;;;;;;;18.50;84.95;96545.78;1718193;82;20976;-78
2021/07/19 03:49:12;;;;;;;6.47;4.55;;;;;;;18.51;85.02;96542.13;1710026;82;21904;-78
2021/07/19 03:51:38;;;;;;;12.98;6.47;;;;;;;18.53;85.13;96542.70;1712932;82;20935;-79
2021/07/19 03:54:04;;;;;;;10.05;4.25;;;;;;;18.54;85.08;96538.52;1712681;82;20968;-78
2021/07/19 03:56:29;;;;;;;9.43;4.83;;;;;;;18.56;85.18;96541.75;1709631;82;20955;-79
2021/07/19 03:58:56;;;;;;;6.65;4.55;;;;;;;18.60;85.03;96542.89;1719411;82;20926;-78
2021/07/19 04:01:22;;;;;;;9.35;4.95;;;;;;;18.65;85.06;96549.32;1709343;82;20959;-79
2021/07/19 04:03:53;;;;;;;8.45;5.75;;;;;;;18.68;85.17;96544.91;1719003;82;21017;-79
2021/07/19 04:06:18;;;;;;;7.40;5.33;;;;;;;18.70;85.18;96543.65;1708018;82;20959;-79
2021/07/19 04:08:44;;;;;;;6.30;4.92;;;;;;;18.74;85.22;96538.23;1719305;82;21262;-78
2021/07/19 04:11:17;;;;;;;6.60;4.12;;;;;;;18.78;85.21;96543.84;1718704;82;20968;-79
2021/07/19 04:13:43;;;;;;;9.13;4.17;;;;;;;18.80;85.18;96538.63;1690152;83;21015;-79
2021/07/19 04:16:16;;;;;;;8.25;5.12;;;;;;;18.87;85.21;96552.97;1686378;84;21012;-79
2021/07/19 04:18:42;;;;;;;7.92;4.58;;;;;;;18.89;85.31;96551.74;1662433;84;21328;-78
2021/07/19 04:21:07;;;;;;;21.00;6.25;;;;;;;18.93;85.36;96556.02;1718786;82;21102;-79
2021/07/19 04:23:33;;;;;;;8.13;4.67;;;;;;;18.94;85.14;96558.14;1719393;82;20896;-78
2021/07/19 04:25:59;;;;;;;9.95;4.65;;;;;;;18.96;85.43;96548.17;1667672;82;20936;-79
2021/07/19 04:28:25;;;;;;;9.90;4.75;;;;;;;19.00;85.64;96546.16;1710947;82;20964;-79
2021/07/19 04:30:50;;;;;;;9.98;5.08;;;;;;;19.08;85.62;96547.14;1708520;82;20995;-79
2021/07/19 04:33:20;;;;;;;8.18;5.33;;;;;;;19.10;84.55;96546.39;1716480;82;21001;-78
2021/07/19 04:35:46;;;;;;;9.08;4.97;;;;;;;19.13;85.20;96541.17;1704722;82;20982;-79
2021/07/19 04:38:15;;;;;;;8.20;4.60;;;;;;;19.22;85.39;96544.27;1686211;83;21012;-79
2021/07/19 04:40:41;;;;;;;11.50;5.75;;;;;;;19.27;85.40;96544.36;1717986;82;20988;-79
2021/07/19 04:43:06;;;;;;;7.85;4.37;;;;;;;19.33;85.21;96540.78;1698554;82;21306;-79
2021/07/19 04:45:32;;;;;;;9.28;5.33;;;;;;;19.36;84.84;96543.78;1691901;83;20913;-79
2021/07/19 04:47:58;;;;;;;8.18;4.87;;;;;;;19.38;84.62;96542.22;1719345;82;20912;-79
2021/07/19 04:50:23;;;;;;;8.80;5.08;;;;;;;19.39;84.61;96538.55;1719558;82;21226;-79
2021/07/19 04:52:49;;;;;;;9.93;4.53;;;;;;;19.41;84.47;96538.59;1690971;83;20942;-79
2021/07/19 04:55:19;;;;;;;9.20;5.05;;;;;;;19.45;84.56;96539.73;1703530;82;21078;-79
2021/07/19 04:57:49;;;;;;;8.83;5.05;;;;;;;19.47;83.62;96537.66;1713781;82;20951;-79
2021/07/19 05:00:15;;;;;;;8.53;5.45;;;;;;;19.49;83.37;96540.85;1671877;84;20971;-79
2021/07/19 05:02:40;;;;;;;8.13;5.22;;;;;;;19.51;82.71;96537.98;1657134;84;21038;-79
2021/07/19 05:05:09;;;;;;;8.43;5.50;;;;;;;19.54;83.08;96540.69;1717058;82;21585;-79
2021/07/19 05:07:36;;;;;;;8.10;5.15;;;;;;;19.54;82.94;96540.20;1705302;82;20995;-79
2021/07/19 05:10:04;;;;;;;9.73;5.22;;;;;;;19.56;83.35;96538.13;1682109;82;21293;-79
2021/07/19 05:12:31;;;;;;;11.50;6.17;;;;;;;19.61;83.12;96540.86;1720010;82;20930;-79
2021/07/19 05:14:58;;;;;;;11.83;5.22;;;;;;;19.67;83.28;96537.27;1708717;82;21254;-79
2021/07/19 05:17:24;;;;;;;10.03;5.50;;;;;;;19.72;82.79;96542.66;1713877;82;20904;-79
2021/07/19 05:19:50;;;;;;;11.50;6.17;;;;;;;19.75;83.04;96538.74;1712386;82;21369;-79
2021/07/19 05:22:15;;;;;;;8.40;5.20;;;;;;;19.77;82.97;96539.31;1707395;82;20984;-79
2021/07/19 05:24:42;;;;;;;7.80;5.50;;;;;;;19.81;83.00;96539.63;1717152;82;20993;-79
2021/07/19 05:27:09;;;;;;;9.95;5.53;;;;;;;19.82;82.49;96531.48;1713453;82;21040;-79
2021/07/19 05:29:35;;;;;;;9.58;6.00;;;;;;;19.84;82.17;96538.63;1711109;82;21067;-78
2021/07/19 05:32:07;;;;;;;12.20;6.55;;;;;;;19.77;80.96;96539.31;1689469;84;21056;-79
2021/07/19 05:34:33;;;;;;;9.70;5.08;;;;;;;19.72;81.49;96541.86;1714446;82;20971;-78
2021/07/19 05:36:59;;;;;;;10.82;5.92;;;;;;;19.67;81.97;96539.91;1707551;82;20901;-78
2021/07/19 05:39:25;;;;;;;10.93;5.85;;;;;;;19.63;80.97;96545.38;1718592;82;20914;-78
2021/07/19 05:41:51;;;;;;;9.68;5.72;;;;;;;19.62;81.55;96545.61;1706790;82;21011;-78
2021/07/19 05:44:17;;;;;;;11.22;6.05;;;;;;;19.65;82.16;96551.20;1719943;82;21252;-78
2021/07/19 05:46:43;;;;;;;9.35;6.20;;;;;;;19.69;81.55;96554.20;1714811;82;20922;-78
2021/07/19 05:49:08;;;;;;;10.00;6.97;;;;;;;19.64;79.46;96549.61;1709511;82;20956;-78
2021/07/19 05:51:34;;;;;;;10.63;7.15;;;;;;;19.52;79.92;96547.48;1717556;82;21254;-79
2021/07/19 05:54:01;;;;;;;10.45;6.90;;;;;;;19.51;80.68;96549.84;1667737;83;20961;-78
2021/07/19 05:56:28;;;;;;;9.68;6.72;;;;;;;19.47;80.99;96545.56;1711695;82;20992;-78
2021/07/19 05:58:54;;;;;;;9.65;7.12;;;;;;;19.46;79.46;96545.80;1658356;85;20952;-78
2021/07/19 06:01:20;;;;;;;11.60;7.65;;;;;;;19.44;79.92;96550.50;1715287;82;20987;-78
2021/07/19 06:03:45;;;;;;;12.98;7.08;;;;;;;19.40;79.39;96549.38;1714298;82;21288;-78
2021/07/19 06:06:11;;;;;;;10.88;7.92;;;;;;;19.37;79.19;96551.16;1693230;83;20964;-78
2021/07/19 06:08:37;;;;;;;11.10;7.40;;;;;;;19.35;79.86;96549.25;1719093;82;20980;-78
2021/07/19 06:11:03;;;;;;;9.10;6.83;;;;;;;19.41;80.08;96551.77;1706967;82;21265;-78
2021/07/19 06:13:28;;;;;;;12.90;6.58;;;;;;;19.48;80.59;96554.27;1696435;82;20999;-78
2021/07/19 06:15:54;;;;;;;9.68;7.78;;;;;;;19.55;80.38;96562.09;1718872;82;20975;-78
2021/07/19 06:18:20;;;;;;;10.55;6.97;;;;;;;19.52;79.32;96563.30;1710686;82;21012;-80
2021/07/19 06:20:45;;;;;;;10.25;7.22;;;;;;;19.59;79.59;96556.63;1708501;82;20936;-80
2021/07/19 06:23:11;;;;;;;9.15;6.95;;;;;;;19.69;79.92;96553.67;1687907;83;20991;-80
2021/07/19 06:25:39;;;;;;;11.55;7.33;;;;;;;19.77;79.97;96559.88;1708974;82;20947;-80
2021/07/19 06:28:05;;;;;;;13.20;6.08;;;;;;;19.81;79.82;96556.25;1718909;82;20988;-79
2021/07/19 06:30:31;;;;;;;9.35;6.70;;;;;;;19.82;80.15;96560.48;1713352;82;20988;-78
2021/07/19 06:32:57;;;;;;;8.00;6.65;;;;;;;19.83;80.01;96568.67;1689392;84;21301;-78
2021/07/19 06:35:23;;;;;;;9.30;6.72;;;;;;;19.88;80.29;96568.79;1717652;82;20924;-78
2021/07/19 06:37:49;;;;;;;9.40;6.80;;;;;;;19.89;80.16;96577.50;1709208;82;21070;-78
2021/07/19 06:40:15;;;;;;;12.90;7.53;;;;;;;19.88;80.16;96579.34;1716569;82;20900;-78
2021/07/19 06:42:41;;;;;;;9.30;6.17;;;;;;;19.87;80.10;96573.78;1712560;82;21284;-79
2021/07/19 06:45:09;;;;;;;9.80;6.90;;;;;;;19.87;79.65;96576.94;1685470;82;21278;-79
2021/07/19 06:47:35;;;;;;;9.60;7.33;;;;;;;19.83;79.02;96576.58;1676458;83;20938;-78
2021/07/19 06:50:01;;;;;;;11.83;8.13;;;;;;;19.82;79.06;96583.41;1716058;82;20961;-80
2021/07/19 06:52:27;;;;;;;11.15;7.17;;;;;;;19.84;79.77;96581.34;1707853;82;20946;-79
2021/07/19 06:54:53;;;;;;;8.20;6.70;;;;;;;19.83;79.60;96584.49;1706428;82;20932;-79
2021/07/19 06:57:19;;;;;;;10.53;7.00;;;;;;;19.95;80.28;96589.22;1713789;82;20971;-78
2021/07/19 06:59:45;;;;;;;9.98;6.50;;;;;;;19.95;80.28;96589.22;1719310;82;21281;-78
2021/07/19 07:02:10;;;;;;;9.88;7.67;;;;;;;20.04;80.25;96594.41;1719269;82;21000;-78
2021/07/19 07:04:36;;;;;;;11.90;8.35;;;;;;;20.17;80.32;96601.20;1717114;82;20944;-78
2021/07/19 07:07:03;;;;;;;10.80;8.73;;;;;;;20.32;80.26;96595.40;1711572;82;21237;-78
2021/07/19 07:09:29;;;;;;;13.95;9.20;;;;;;;20.49;79.96;96598.09;1716869;82;20971;-78
2021/07/19 07:11:55;;;;;;;11.05;8.80;;;;;;;20.63;79.19;96604.14;1678537;84;20926;-78
2021/07/19 07:14:20;;;;;;;14.18;8.90;;;;;;;20.77;79.06;96598.55;1715350;82;20951;-78
2021/07/19 07:16:46;;;;;;;11.53;8.55;;;;;;;20.93;78.85;96605.66;1677545;84;20958;-79
2021/07/19 07:19:12;;;;;;;12.90;9.93;;;;;;;21.10;78.64;96599.84;1723327;82;20968;-79
2021/07/19 07:21:38;;;;;;;12.78;10.43;;;;;;;21.22;75.62;96603.18;1717527;82;21024;-78
2021/07/19 07:24:04;;;;;;;12.35;9.65;;;;;;;21.18;76.44;96599.95;1692710;83;21041;-78
2021/07/19 07:26:30;;;;;;;12.37;9.78;;;;;;;21.24;75.41;96596.33;1670179;84;20984;-80
2021/07/19 07:28:56;;;;;;;12.55;10.10;;;;;;;21.21;75.99;96601.59;1703058;82;20931;-80
2021/07/19 07:31:29;;;;;;;12.65;9.93;;;;;;;21.15;75.10;96602.56;1704808;82;21325;-79
2021/07/19 07:33:56;;;;;;;12.58;9.45;;;;;;;20.95;73.98;96593.81;1718058;82;20948;-78
2021/07/19 07:36:26;;;;;;;12.23;10.38;;;;;;;20.85;74.91;96594.99;1709895;82;20922;-78
2021/07/19 07:38:52;;;;;;;12.07;9.63;;;;;;;20.76;74.31;96589.83;1719563;82;20943;-78
2021/07/19 07:41:19;;;;;;;13.85;11.43;;;;;;;20.68;75.26;96592.88;1720355;82;20972;-80
2021/07/19 07:43:45;;;;;;;10.93;9.63;;;;;;;20.67;73.90;96584.16;1721898;82;21229;-80
2021/07/19 07:46:11;;;;;;;12.55;10.60;;;;;;;20.74;73.61;96591.11;1716845;82;20952;-80
2021/07/19 07:48:37;;;;;;;12.88;10.72;;;;;;;20.74;73.49;96585.83;1667207;85;20995;-80
2021/07/19 07:51:07;;;;;;;13.80;11.08;;;;;;;20.75;73.52;96584.27;1691650;84;20989;-80
2021/07/19 07:53:33;;;;;;;15.08;11.73;;;;;;;20.72;73.20;96589.23;1722831;82;20924;-80
2021/07/19 07:55:58;;;;;;;13.05;11.18;;;;;;;20.71;73.22;96589.75;1700991;82;21274;-79
2021/07/19 07:58:26;;;;;;;13.55;10.50;;;;;;;20.76;73.63;96580.58;1709165;82;20972;-79
2021/07/19 08:00:51;;;;;;;13.28;11.03;;;;;;;20.77;73.87;96591.42;1692252;84;21451;-79
2021/07/19 08:03:17;;;;;;;12.93;10.93;;;;;;;20.72;73.72;96588.71;1705172;82;21007;-79
2021/07/19 08:05:44;;;;;;;13.83;9.80;;;;;;;20.71;74.87;96584.99;1690733;83;20988;-79
2021/07/19 08:08:10;;;;;;;12.75;10.13;;;;;;;20.71;75.05;96589.75;1720931;82;21260;-80
2021/07/19 08:10:35;;;;;;;13.43;10.38;;;;;;;20.64;73.45;96593.06;1705264;83;20967;-80
2021/07/19 08:13:01;;;;;;;13.15;10.30;;;;;;;20.58;73.93;96590.06;1703550;82;20907;-80
2021/07/19 08:15:27;;;;;;;12.05;10.13;;;;;;;20.52;73.51;96590.52;1705737;82;20970;-79
2021/07/19 08:17:53;;;;;;;19.20;11.85;;;;;;;20.52;74.63;96583.92;1715603;82;20974;-80
2021/07/19 08:20:19;;;;;;;14.18;11.35;;;;;;;20.50;73.56;96583.84;1718273;82;21000;-78
2021/07/19 08:22:47;;;;;;;12.80;10.32;;;;;;;20.59;73.76;96580.59;1721680;82;21008;-79
2021/07/19 08:25:16;;;;;;;13.88;10.53;;;;;;;20.68;73.90;96586.28;1719108;82;21272;-80
2021/07/19 08:27:42;;;;;;;12.93;10.95;;;;;;;20.81;74.13;96571.92;1718357;82;21277;-80
2021/07/19 08:30:09;;;;;;;12.23;10.03;;;;;;;21.01;72.52;96577.53;1704135;82;20904;-79
2021/07/19 08:32:35;;;;;;;12.65;10.30;;;;;;;21.21;73.02;96572.52;1720478;82;21011;-80
2021/07/19 08:35:00;;;;;;;11.83;10.15;;;;;;;21.44;72.20;96576.00;1722022;82;21231;-80
2021/07/19 08:37:27;;;;;;;12.55;11.28;;;;;;;21.45;72.45;96575.75;1717019;82;21083;-80
2021/07/19 08:39:53;;;;;;;14.70;11.10;;;;;;;21.47;71.68;96578.94;1713264;82;21058;-80
2021/07/19 08:42:19;;;;;;;14.75;12.10;;;;;;;21.61;72.62;96578.05;1721472;82;20972;-78
2021/07/19 08:44:45;;;;;;;14.15;11.00;;;;;;;21.61;72.21;96578.58;1720274;82;20932;-78
2021/07/19 08:47:12;;;;;;;14.38;12.33;;;;;;;21.72;72.49;96578.98;1730841;82;21266;-78
2021/07/19 08:49:38;;;;;;;13.18;11.78;;;;;;;21.90;70.19;96577.33;1721229;82;20948;-78
2021/07/19 08:52:05;;;;;;;14.23;11.28;;;;;;;22.14;69.67;96587.15;1720522;82;21352;-78
2021/07/19 08:54:37;;;;;;;12.47;11.15;;;;;;;22.41;67.59;96577.84;1717965;82;20980;-78
2021/07/19 08:57:04;;;;;;;13.60;12.18;;;;;;;22.41;67.29;96573.88;1711136;82;20976;-78
2021/07/19 08:59:31;;;;;;;16.37;12.20;;;;;;;22.51;68.23;96570.00;1719806;82;20928;-78
2021/07/19 09:02:00;;;;;;;16.37;12.03;;;;;;;22.50;67.26;96573.70;1720559;82;21321;-78
2021/07/19 09:04:25;;;;;;;14.95;12.37;;;;;;;22.34;67.68;96582.04;1689860;83;20996;-78
2021/07/19 09:06:51;;;;;;;13.05;10.98;;;;;;;22.18;69.31;96576.33;1671249;83;20948;-78
2021/07/19 09:09:32;;;;;;;11.45;9.98;;;;;;;22.07;68.84;96578.06;1718478;82;21352;-80
2021/07/19 09:12:01;;;;;;;12.80;10.68;;;;;;;22.24;67.29;96579.81;1721683;82;21284;-80
2021/07/19 09:14:26;;;;;;;12.55;10.45;;;;;;;22.22;68.07;96576.63;1701471;82;21272;-79
2021/07/19 09:16:53;;;;;;;13.25;10.68;;;;;;;22.21;67.56;96574.50;1678125;83;20983;-80
2021/07/19 09:19:27;;;;;;;13.78;11.20;;;;;;;22.11;67.06;96573.87;1707922;82;21005;-80
2021/07/19 09:22:06;;;;;;;13.40;10.50;;;;;;;22.20;68.44;96570.78;1712814;82;21392;-78
2021/07/19 09:24:36;;;;;;;15.30;11.78;;;;;;;22.51;67.65;96574.50;1710941;82;20948;-78
2021/07/19 09:27:03;;;;;;;11.43;10.23;;;;;;;22.69;67.40;96567.49;1715945;82;20939;-80
2021/07/19 09:29:33;;;;;;;13.43;11.20;;;;;;;22.79;66.35;96563.60;1717946;82;22071;-80
2021/07/19 09:31:59;;;;;;;13.00;10.40;;;;;;;22.65;65.84;96567.20;1693998;82;21304;-80
2021/07/19 09:34:32;;;;;;;11.60;10.38;;;;;;;22.61;62.78;96563.97;1719252;82;21030;-81
2021/07/19 09:37:02;;;;;;;13.00;11.22;;;;;;;22.54;63.43;96560.22;1696892;82;20959;-79
2021/07/19 09:39:31;;;;;;;13.35;10.93;;;;;;;22.36;65.86;96557.96;1704142;82;20912;-78
2021/07/19 09:42:15;;;;;;;13.20;10.82;;;;;;;22.20;67.29;96568.14;1700805;82;20952;-78
2021/07/19 09:44:42;;;;;;;12.40;11.10;;;;;;;22.20;68.71;96570.78;1715998;82;20936;-78
2021/07/19 09:47:11;;;;;;;14.53;10.93;;;;;;;22.19;64.43;96565.22;1717702;82;21340;-78
2021/07/19 09:49:39;;;;;;;14.23;10.55;;;;;;;22.14;65.64;96560.69;1715627;82;21292;-80
2021/07/19 09:52:12;;;;;;;13.08;9.33;;;;;;;22.10;64.41;96555.59;1716513;82;20976;-79
2021/07/19 09:54:43;;;;;;;12.13;10.58;;;;;;;21.97;65.13;96558.63;1714758;82;20987;-79
2021/07/19 09:57:10;;;;;;;8.75;7.80;;;;;;;22.00;64.46;96558.13;1688599;84;20991;-79
2021/07/19 09:59:51;;;;;;;11.63;10.23;;;;;;;22.20;63.07;96557.03;1719157;82;21324;-78
2021/07/19 10:02:40;;;;;;;12.15;10.30;;;;;;;22.36;66.23;96558.76;1714747;82;20967;-78
2021/07/19 10:05:08;;;;;;;12.03;9.75;;;;;;;22.56;63.94;96553.34;1705220;82;21004;-78
2021/07/19 10:07:35;;;;;;;14.15;9.38;;;;;;;22.71;63.41;96546.84;1714592;82;20992;-78
2021/07/19 10:10:05;;;;;;;12.68;10.53;;;;;;;22.85;61.82;96547.23;1714397;82;20924;-78
2021/07/19 10:12:31;;;;;;;13.95;9.90;;;;;;;22.86;61.41;96543.53;1712965;82;21253;-80
2021/07/19 10:14:57;;;;;;;13.38;9.85;;;;;;;22.70;62.19;96547.89;1711596;82;20912;-79
2021/07/19 10:17:24;;;;;;;12.53;9.95;;;;;;;22.85;63.51;96544.59;1714353;82;21051;-79
2021/07/19 10:19:52;;;;;;;11.20;8.83;;;;;;;22.96;62.13;96542.28;1708154;82;20951;-79
2021/07/19 10:22:18;;;;;;;11.68;8.80;;;;;;;23.08;61.23;96543.38;1714283;82;21269;-79
2021/07/19 10:24:44;;;;;;;12.50;9.58;;;;;;;23.15;61.38;96533.37;1711285;82;20975;-80
2021/07/19 10:27:16;;;;;;;11.78;9.05;;;;;;;23.25;60.19;96533.40;1719462;82;20963;-79
2021/07/19 10:29:43;;;;;;;11.57;8.75;;;;;;;23.19;59.90;96537.89;1716289;82;21005;-80
2021/07/19 10:32:09;;;;;;;12.60;9.78;;;;;;;23.17;62.68;96536.02;1715174;82;21004;-80
2021/07/19 10:34:35;;;;;;;11.05;8.65;;;;;;;23.12;63.14;96536.01;1706467;83;20989;-79
2021/07/19 10:37:04;;;;;;;12.60;9.08;;;;;;;23.19;61.28;96531.79;1708409;83;20928;-78
2021/07/19 10:39:35;;;;;;;11.33;9.00;;;;;;;23.26;62.50;96529.16;1684341;84;21476;-79
2021/07/19 10:42:07;;;;;;;12.55;9.20;;;;;;;23.33;62.78;96523.11;1680645;84;20945;-79
2021/07/19 10:44:35;;;;;;;10.48;8.75;;;;;;;23.39;61.00;96518.62;1703603;83;21260;-79
2021/07/19 10:47:22;;;;;;;10.28;9.28;;;;;;;23.44;61.26;96522.63;1703087;83;20939;-78
2021/07/19 10:49:59;;;;;;;10.93;8.70;;;;;;;23.52;61.72;96521.32;1703696;83;21268;-78
2021/07/19 10:52:38;;;;;;;12.03;9.23;;;;;;;23.61;60.19;96523.78;1674476;84;20948;-78
2021/07/19 10:55:08;;;;;;;11.57;9.20;;;;;;;23.53;53.72;96525.03;1649943;85;21071;-80
2021/07/19 10:57:41;;;;;;;14.90;10.35;;;;;;;23.48;58.63;96526.88;1706826;83;21016;-80
2021/07/19 11:00:16;;;;;;;11.78;8.65;;;;;;;23.64;59.85;96523.25;1705711;83;20936;-80
2021/07/19 11:02:42;;;;;;;11.12;9.68;;;;;;;23.67;59.43;96518.75;1675527;84;20981;-80
2021/07/19 11:05:09;;;;;;;13.10;9.50;;;;;;;23.81;60.05;96515.87;1653048;83;20976;-80
2021/07/19 11:07:41;;;;;;;11.38;8.88;;;;;;;23.80;60.70;96520.91;1694277;83;21007;-80
2021/07/19 11:10:22;;;;;;;10.82;8.50;;;;;;;23.83;60.83;96516.92;1684657;83;20943;-78
2021/07/19 11:12:56;;;;;;;11.88;9.30;;;;;;;23.89;57.92;96517.19;1652509;85;20999;-78
2021/07/19 11:15:34;;;;;;;11.12;9.38;;;;;;;23.96;58.58;96519.08;1688792;83;20983;-78
2021/07/19 11:18:15;;;;;;;12.35;8.85;;;;;;;24.04;57.74;96511.12;1640138;85;21004;-78
2021/07/19 11:20:43;;;;;;;10.30;9.23;;;;;;;24.07;58.65;96513.23;1701634;83;21333;-78
2021/07/19 11:23:08;;;;;;;11.45;8.33;;;;;;;24.04;53.78;96509.26;1676559;84;20964;-78
2021/07/19 11:25:43;;;;;;;10.78;7.87;;;;;;;24.01;55.66;96515.63;1646698;85;20957;-78
2021/07/19 11:28:17;;;;;;;10.38;8.28;;;;;;;23.99;51.99;96517.75;1654009;85;21284;-80